createdAt,value
2016-04-21T00:00:10.208Z,64.67
2016-04-21T00:00:23.286Z,64.58
2016-04-21T00:00:51.552Z,64.58
2016-04-21T00:01:04.805Z,64.01
2016-04-21T00:01:17.867Z,64.2
2016-04-21T00:01:31.055Z,64.01
2016-04-21T00:01:44.367Z,64.11
2016-04-21T00:01:57.714Z,64.11
2016-04-21T00:02:11.058Z,64.2
2016-04-21T00:02:24.198Z,64.11
2016-04-21T00:02:37.495Z,64.11
2016-04-21T00:02:50.792Z,64.39
2016-04-21T00:03:04.154Z,64.67
2016-04-21T00:03:17.451Z,64.58
2016-04-21T00:03:30.779Z,64.58
2016-04-21T00:03:44.076Z,64.67
2016-04-21T00:03:57.375Z,64.29
2016-04-21T00:04:10.688Z,64.77
2016-04-21T00:04:23.985Z,64.01
2016-04-21T00:04:37.297Z,64.29
2016-04-21T00:04:50.578Z,64.01
2016-04-21T00:05:03.878Z,63.92
2016-04-21T00:05:17.159Z,63.73
2016-04-21T00:05:35.003Z,64.01
2016-04-21T00:05:48.316Z,63.82
2016-04-21T00:06:01.599Z,63.82
2016-04-21T00:06:14.740Z,64.11
2016-04-21T00:06:28.036Z,63.73
2016-04-21T00:06:41.333Z,63.73
2016-04-21T00:06:54.646Z,63.82
2016-04-21T00:07:07.930Z,64.11
2016-04-21T00:07:21.227Z,64.01
2016-04-21T00:07:34.555Z,64.11
2016-04-21T00:07:47.868Z,63.35
2016-04-21T00:08:01.246Z,63.45
2016-04-21T00:08:14.542Z,62.78
2016-04-21T00:08:27.855Z,63.07
2016-04-21T00:08:41.167Z,62.78
2016-04-21T00:08:54.449Z,62.12
2016-04-21T00:09:07.764Z,61.93
2016-04-21T00:09:21.061Z,61.74
2016-04-21T00:09:34.389Z,61.65
2016-04-21T00:09:47.670Z,61.55
2016-04-21T00:10:15.111Z,61.55
2016-04-21T00:10:28.455Z,61.74
2016-04-21T00:10:44.798Z,61.83
2016-04-21T00:10:58.113Z,61.83
2016-04-21T00:11:11.394Z,61.83
2016-04-21T00:11:24.691Z,61.55
2016-04-21T00:11:38.004Z,61.46
2016-04-21T00:11:51.316Z,61.74
2016-04-21T00:12:04.616Z,61.93
2016-04-21T00:12:17.913Z,61.46
2016-04-21T00:12:31.178Z,61.65
2016-04-21T00:12:44.507Z,61.74
2016-04-21T00:12:57.822Z,61.36
2016-04-21T00:13:11.150Z,61.93
2016-04-21T00:13:24.635Z,61.74
2016-04-21T00:13:37.916Z,61.46
2016-04-21T00:13:51.228Z,61.83
2016-04-21T00:14:04.527Z,62.02
2016-04-21T00:14:17.840Z,61.65
2016-04-21T00:14:31.137Z,61.27
2016-04-21T00:14:44.418Z,61.65
2016-04-21T00:14:57.733Z,61.46
2016-04-21T00:15:11.077Z,61.65
2016-04-21T00:15:24.405Z,62.02
2016-04-21T00:15:37.718Z,61.27
2016-04-21T00:15:51.030Z,61.46
2016-04-21T00:16:04.329Z,61.55
2016-04-21T00:16:17.626Z,62.88
2016-04-21T00:16:30.923Z,63.73
2016-04-21T00:16:44.220Z,64.11
2016-04-21T00:16:57.551Z,64.29
2016-04-21T00:17:10.832Z,64.77
2016-04-21T00:17:24.113Z,64.96
2016-04-21T00:17:37.410Z,64.86
2016-04-21T00:17:50.707Z,64.8
2016-04-21T00:18:03.851Z,64.9
2016-04-21T00:18:17.148Z,65.37
2016-04-21T00:18:30.616Z,65.37
2016-04-21T00:18:43.944Z,65.56
2016-04-21T00:18:57.241Z,65.56
2016-04-21T00:19:10.557Z,65.56
2016-04-21T00:19:23.838Z,65.75
2016-04-21T00:19:37.135Z,64.99
2016-04-21T00:19:50.416Z,64.9
2016-04-21T00:20:03.622Z,64.61
2016-04-21T00:20:16.919Z,65.75
2016-04-21T00:20:30.482Z,65.28
2016-04-21T00:20:43.763Z,65.18
2016-04-21T00:20:57.075Z,65.94
2016-04-21T00:21:10.374Z,65.37
2016-04-21T00:21:23.671Z,65.47
2016-04-21T00:21:36.968Z,65.47
2016-04-21T00:21:53.265Z,64.8
2016-04-21T00:22:06.580Z,64.52
2016-04-21T00:22:19.893Z,64.61
2016-04-21T00:22:33.549Z,64.52
2016-04-21T00:22:46.846Z,64.61
2016-04-21T00:23:00.067Z,64.9
2016-04-21T00:23:13.286Z,64.9
2016-04-21T00:23:26.598Z,64.9
2016-04-21T00:23:42.879Z,64.9
2016-04-21T00:23:56.161Z,64.61
2016-04-21T00:24:09.460Z,64.04
2016-04-21T00:24:22.757Z,64.04
2016-04-21T00:24:50.210Z,63.76
2016-04-21T00:25:03.494Z,64.04
2016-04-21T00:25:16.791Z,64.9
2016-04-21T00:25:30.322Z,64.8
2016-04-21T00:25:42.884Z,64.9
2016-04-21T00:26:10.340Z,64.99
2016-04-21T00:26:23.653Z,64.42
2016-04-21T00:26:36.965Z,64.52
2016-04-21T00:27:04.406Z,64.61
2016-04-21T00:27:17.718Z,64.99
2016-04-21T00:27:31.015Z,65.66
2016-04-21T00:27:44.297Z,65.47
2016-04-21T00:27:57.628Z,64.9
2016-04-21T00:28:10.940Z,64.9
2016-04-21T00:28:24.237Z,65.09
2016-04-21T00:28:37.565Z,64.61
2016-04-21T00:28:50.940Z,64.71
2016-04-21T00:29:04.240Z,64.8
2016-04-21T00:29:17.537Z,64.04
2016-04-21T00:29:30.849Z,63.85
2016-04-21T00:29:44.131Z,64.8
2016-04-21T00:29:57.428Z,64.9
2016-04-21T00:30:25.117Z,65.28
2016-04-21T00:30:38.430Z,66.41
2016-04-21T00:30:51.726Z,66.22
2016-04-21T00:31:05.058Z,66.41
2016-04-21T00:31:18.354Z,66.03
2016-04-21T00:31:31.667Z,65.84
2016-04-21T00:31:44.979Z,65.75
2016-04-21T00:31:58.294Z,66.31
2016-04-21T00:32:11.622Z,66.41
2016-04-21T00:32:24.919Z,66.22
2016-04-21T00:32:38.075Z,65.84
2016-04-21T00:32:51.372Z,65.47
2016-04-21T00:33:04.688Z,65.66
2016-04-21T00:33:18.000Z,65.66
2016-04-21T00:33:31.281Z,65.28
2016-04-21T00:33:44.578Z,64.99
2016-04-21T00:33:57.878Z,65.37
2016-04-21T00:34:11.175Z,65.66
2016-04-21T00:34:24.472Z,66.22
2016-04-21T00:34:37.769Z,66.03
2016-04-21T00:34:51.066Z,66.88
2016-04-21T00:35:04.396Z,66.6
2016-04-21T00:35:17.693Z,66.31
2016-04-21T00:35:34.146Z,66.22
2016-04-21T00:35:47.443Z,65.66
2016-04-21T00:36:00.743Z,65.47
2016-04-21T00:36:13.884Z,65.56
2016-04-21T00:36:27.181Z,66.03
2016-04-21T00:36:40.665Z,66.13
2016-04-21T00:36:53.978Z,65.66
2016-04-21T00:37:21.433Z,65.66
2016-04-21T00:37:34.745Z,65.5
2016-04-21T00:37:48.058Z,65.12
2016-04-21T00:38:01.076Z,65.37
2016-04-21T00:38:14.388Z,64.71
2016-04-21T00:38:27.888Z,64.93
2016-04-21T00:38:41.169Z,65.37
2016-04-21T00:38:54.451Z,65.12
2016-04-21T00:39:07.955Z,64.93
2016-04-21T00:39:21.267Z,65.37
2016-04-21T00:39:34.580Z,65.78
2016-04-21T00:39:47.876Z,65.88
2016-04-21T00:40:01.160Z,65.5
2016-04-21T00:40:14.472Z,66.31
2016-04-21T00:40:27.785Z,66.69
2016-04-21T00:40:41.519Z,67.07
2016-04-21T00:41:08.974Z,66.22
2016-04-21T00:41:22.271Z,65.18
2016-04-21T00:42:03.055Z,65.84
2016-04-21T00:42:16.337Z,65.56
2016-04-21T00:42:29.618Z,65.94
2016-04-21T00:42:42.915Z,65.84
2016-04-21T00:42:56.196Z,66.5
2016-04-21T00:43:09.527Z,66.22
2016-04-21T00:43:22.808Z,66.31
2016-04-21T00:43:36.340Z,66.22
2016-04-21T00:43:49.636Z,66.13
2016-04-21T00:44:02.952Z,66.22
2016-04-21T00:44:16.249Z,66.22
2016-04-21T00:44:29.561Z,66.22
2016-04-21T00:44:42.858Z,66.13
2016-04-21T00:44:56.124Z,66.79
2016-04-21T00:45:09.424Z,66.88
2016-04-21T00:45:22.721Z,67.36
2016-04-21T00:45:36.111Z,66.22
2016-04-21T00:45:49.642Z,66.13
2016-04-21T00:46:02.957Z,65.66
2016-04-21T00:46:16.238Z,65.56
2016-04-21T00:46:29.551Z,65.47
2016-04-21T00:46:42.863Z,65.75
2016-04-21T00:46:56.176Z,66.03
2016-04-21T00:47:08.741Z,65.84
2016-04-21T00:47:22.038Z,65.28
2016-04-21T00:47:35.569Z,65.84
2016-04-21T00:47:48.897Z,65.56
2016-04-21T00:48:02.196Z,65.84
2016-04-21T00:48:29.649Z,65.84
2016-04-21T00:48:42.962Z,65.47
2016-04-21T00:48:56.259Z,65.56
2016-04-21T00:49:09.606Z,65.47
2016-04-21T00:49:22.902Z,65.09
2016-04-21T00:49:36.199Z,65.09
2016-04-21T00:49:49.481Z,64.71
2016-04-21T00:50:02.765Z,64.8
2016-04-21T00:50:16.077Z,63.85
2016-04-21T00:50:29.859Z,63.57
2016-04-21T00:50:42.999Z,62.72
2016-04-21T00:50:56.280Z,61.58
2016-04-21T00:51:09.611Z,61.49
2016-04-21T00:51:22.907Z,61.02
2016-04-21T00:51:36.204Z,60.45
2016-04-21T00:51:49.532Z,60.26
2016-04-21T00:52:03.052Z,59.5
2016-04-21T00:52:16.365Z,59.31
2016-04-21T00:52:57.130Z,59.31
2016-04-21T00:53:10.288Z,59.03
2016-04-21T00:53:23.601Z,59.31
2016-04-21T00:53:37.101Z,59.31
2016-04-21T00:53:50.398Z,59.41
2016-04-21T00:54:03.713Z,60.45
2016-04-21T00:54:16.995Z,60.74
2016-04-21T00:54:30.323Z,61.49
2016-04-21T00:54:43.620Z,61.77
2016-04-21T00:54:57.120Z,62.72
2016-04-21T00:55:10.404Z,62.34
2016-04-21T00:55:23.701Z,62.63
2016-04-21T00:55:37.029Z,62.63
2016-04-21T00:55:50.341Z,62.53
2016-04-21T00:56:03.640Z,61.96
2016-04-21T00:56:16.937Z,61.87
2016-04-21T00:56:30.218Z,61.58
2016-04-21T00:56:43.515Z,60.64
2016-04-21T00:56:56.828Z,60.55
2016-04-21T00:57:10.128Z,60.45
2016-04-21T00:57:23.456Z,60.45
2016-04-21T00:58:04.223Z,59.98
2016-04-21T00:58:17.739Z,60.07
2016-04-21T00:58:31.020Z,59.79
2016-04-21T00:58:44.333Z,59.88
2016-04-21T00:58:57.645Z,59.79
2016-04-21T00:59:10.945Z,59.88
2016-04-21T00:59:24.242Z,59.6
2016-04-21T00:59:37.539Z,59.88
2016-04-21T00:59:50.679Z,60.55
2016-04-21T01:00:03.979Z,60.26
2016-04-21T01:00:17.292Z,60.26
2016-04-21T01:00:33.604Z,60.64
2016-04-21T01:00:46.901Z,60.55
2016-04-21T01:01:00.217Z,60.36
2016-04-21T01:01:13.514Z,60.45
2016-04-21T01:01:26.998Z,60.55
2016-04-21T01:01:40.310Z,60.45
2016-04-21T01:01:53.592Z,60.74
2016-04-21T01:02:06.906Z,60.45
2016-04-21T01:02:20.203Z,60.55
2016-04-21T01:02:33.516Z,60.93
2016-04-21T01:02:46.844Z,60.93
2016-04-21T01:03:00.144Z,60.55
2016-04-21T01:03:13.440Z,61.02
2016-04-21T01:03:26.784Z,61.36
2016-04-21T01:03:40.081Z,61.3
2016-04-21T01:03:53.378Z,61.58
2016-04-21T01:04:06.693Z,61.49
2016-04-21T01:04:19.990Z,61.58
2016-04-21T01:04:33.287Z,61.49
2016-04-21T01:04:46.599Z,61.4
2016-04-21T01:05:00.163Z,60.93
2016-04-21T01:05:13.460Z,61.11
2016-04-21T01:05:26.944Z,61.49
2016-04-21T01:05:40.225Z,61.49
2016-04-21T01:05:53.366Z,61.68
2016-04-21T01:06:06.727Z,61.58
2016-04-21T01:06:20.040Z,60.74
2016-04-21T01:06:33.337Z,60.74
2016-04-21T01:07:00.852Z,60.36
2016-04-21T01:07:14.134Z,60.36
2016-04-21T01:07:27.446Z,60.26
2016-04-21T01:07:40.743Z,59.88
2016-04-21T01:07:54.056Z,59.69
2016-04-21T01:08:07.416Z,60.45
2016-04-21T01:08:20.557Z,60.26
2016-04-21T01:08:33.838Z,60.45
2016-04-21T01:08:47.135Z,59.98
2016-04-21T01:09:00.470Z,60.55
2016-04-21T01:09:13.782Z,60.36
2016-04-21T01:09:27.079Z,60.42
2016-04-21T01:09:54.548Z,60.83
2016-04-21T01:10:22.021Z,62.25
2016-04-21T01:10:36.302Z,63.29
2016-04-21T01:10:49.615Z,64.33
2016-04-21T01:11:02.915Z,64.8
2016-04-21T01:11:16.212Z,65.75
2016-04-21T01:11:29.509Z,65.28
2016-04-21T01:11:42.806Z,65.47
2016-04-21T01:11:56.134Z,64.9
2016-04-21T01:12:09.434Z,65.47
2016-04-21T01:12:22.762Z,65.37
2016-04-21T01:12:36.059Z,65.75
2016-04-21T01:12:49.340Z,65.47
2016-04-21T01:13:02.672Z,65.47
2016-04-21T01:13:15.969Z,64.96
2016-04-21T01:13:29.265Z,65.09
2016-04-21T01:13:42.562Z,65.62
2016-04-21T01:14:10.046Z,65.37
2016-04-21T01:14:23.343Z,64.58
2016-04-21T01:14:36.687Z,64.01
2016-04-21T01:14:49.968Z,63.45
2016-04-21T01:15:03.274Z,63.57
2016-04-21T01:15:16.430Z,63.26
2016-04-21T01:15:43.914Z,62.78
2016-04-21T01:15:57.211Z,62.69
2016-04-21T01:16:10.547Z,62.82
2016-04-21T01:16:23.860Z,62.21
2016-04-21T01:16:37.172Z,62.12
2016-04-21T01:16:50.516Z,62.12
2016-04-21T01:17:03.822Z,61.65
2016-04-21T01:17:17.150Z,61.74
2016-04-21T01:17:30.447Z,61.74
2016-04-21T01:17:43.744Z,62.21
2016-04-21T01:17:57.041Z,63.45
2016-04-21T01:18:10.346Z,63.76
2016-04-21T01:18:37.971Z,64.77
2016-04-21T01:18:51.283Z,64.77
2016-04-21T01:19:04.604Z,64.39
2016-04-21T01:19:17.901Z,63.73
2016-04-21T01:19:59.531Z,63.01
2016-04-21T01:20:12.827Z,62.63
2016-04-21T01:20:26.140Z,62.53
2016-04-21T01:20:39.452Z,62.25
2016-04-21T01:20:52.749Z,61.58
2016-04-21T01:21:06.050Z,61.58
2016-04-21T01:21:19.566Z,61.58
2016-04-21T01:21:32.878Z,61.49
2016-04-21T01:21:46.175Z,60.74
2016-04-21T01:21:59.226Z,60.45
2016-04-21T01:22:12.232Z,60.55
2016-04-21T01:22:25.529Z,60.55
2016-04-21T01:22:38.841Z,60.45
2016-04-21T01:22:52.169Z,60.64
2016-04-21T01:23:05.533Z,60.83
2016-04-21T01:23:18.673Z,60.74
2016-04-21T01:23:31.970Z,60.61
2016-04-21T01:23:45.267Z,60.45
2016-04-21T01:23:58.580Z,60.45
2016-04-21T01:24:11.913Z,60.23
2016-04-21T01:24:25.210Z,60.83
2016-04-21T01:24:38.491Z,60.74
2016-04-21T01:24:51.788Z,60.93
2016-04-21T01:25:05.089Z,61.87
2016-04-21T01:25:18.386Z,62.63
2016-04-21T01:25:31.932Z,62.53
2016-04-21T01:25:45.229Z,63.76
2016-04-21T01:25:58.526Z,63.76
2016-04-21T01:26:11.810Z,63.39
2016-04-21T01:26:25.107Z,63.67
2016-04-21T01:26:38.420Z,63.29
2016-04-21T01:26:51.717Z,62.44
2016-04-21T01:27:05.018Z,62.06
2016-04-21T01:27:18.299Z,61.77
2016-04-21T01:27:31.611Z,61.49
2016-04-21T01:27:44.908Z,61.68
2016-04-21T01:27:58.189Z,61.3
2016-04-21T01:28:11.505Z,61.02
2016-04-21T01:28:24.802Z,60.74
2016-04-21T01:28:38.099Z,60.93
2016-04-21T01:28:51.380Z,60.64
2016-04-21T01:29:04.695Z,60.26
2016-04-21T01:29:17.977Z,60.55
2016-04-21T01:29:31.289Z,60.64
2016-04-21T01:29:44.570Z,60.45
2016-04-21T01:29:57.852Z,60.36
2016-04-21T01:30:11.183Z,60.45
2016-04-21T01:30:24.495Z,59.98
2016-04-21T01:30:37.823Z,59.6
2016-04-21T01:30:51.120Z,59.6
2016-04-21T01:31:04.420Z,59.5
2016-04-21T01:31:17.733Z,59.5
2016-04-21T01:31:31.045Z,59.41
2016-04-21T01:31:44.358Z,59.41
2016-04-21T01:31:57.655Z,59.03
2016-04-21T01:32:10.939Z,59.03
2016-04-21T01:32:24.236Z,59.03
2016-04-21T01:32:37.533Z,58.37
2016-04-21T01:32:50.861Z,58.37
2016-04-21T01:33:04.161Z,58.65
2016-04-21T01:33:17.457Z,58.84
2016-04-21T01:33:30.942Z,59.5
2016-04-21T01:33:44.223Z,59.41
2016-04-21T01:33:57.536Z,59.41
2016-04-21T01:34:10.867Z,59.79
2016-04-21T01:34:24.179Z,60.17
2016-04-21T01:34:37.460Z,60.17
2016-04-21T01:34:50.742Z,60.74
2016-04-21T01:35:04.073Z,61.68
2016-04-21T01:35:17.370Z,61.77
2016-04-21T01:35:30.698Z,62.63
2016-04-21T01:35:43.995Z,62.82
2016-04-21T01:35:57.292Z,63.1
2016-04-21T01:36:10.591Z,63.01
2016-04-21T01:36:23.904Z,63.2
2016-04-21T01:36:51.341Z,63.39
2016-04-21T01:37:04.640Z,64.14
2016-04-21T01:37:17.234Z,63.85
2016-04-21T01:37:30.531Z,63.95
2016-04-21T01:37:43.843Z,63.85
2016-04-21T01:37:57.156Z,64.33
2016-04-21T01:38:10.176Z,64.61
2016-04-21T01:38:23.363Z,64.52
2016-04-21T01:38:36.660Z,64.61
2016-04-21T01:38:49.972Z,64.52
2016-04-21T01:39:03.287Z,63.95
2016-04-21T01:39:16.599Z,63.95
2016-04-21T01:39:29.928Z,64.14
2016-04-21T01:39:43.240Z,64.61
2016-04-21T01:39:56.724Z,64.71
2016-04-21T01:40:10.009Z,64.99
2016-04-21T01:40:23.306Z,64.99
2016-04-21T01:40:37.759Z,65.28
2016-04-21T01:40:51.056Z,65.09
2016-04-21T01:41:04.558Z,65.18
2016-04-21T01:41:17.823Z,65.18
2016-04-21T01:41:31.136Z,65.28
2016-04-21T01:41:44.448Z,64.99
2016-04-21T01:41:57.745Z,64.99
2016-04-21T01:42:11.061Z,65.09
2016-04-21T01:42:24.342Z,65.47
2016-04-21T01:42:37.654Z,65.66
2016-04-21T01:42:50.967Z,66.22
2016-04-21T01:43:04.281Z,66.31
2016-04-21T01:43:17.609Z,67.45
2016-04-21T01:43:30.922Z,66.79
2016-04-21T01:43:44.219Z,66.88
2016-04-21T01:43:57.391Z,66.31
2016-04-21T01:44:10.706Z,66.31
2016-04-21T01:44:24.003Z,66.31
2016-04-21T01:44:37.331Z,66.31
2016-04-21T01:44:50.628Z,66.03
2016-04-21T01:45:03.928Z,65.94
2016-04-21T01:45:17.240Z,65.88
2016-04-21T01:45:30.584Z,65.37
2016-04-21T01:45:43.897Z,65.09
2016-04-21T01:45:57.194Z,65.37
2016-04-21T01:46:10.509Z,65.66
2016-04-21T01:46:23.775Z,65.4
2016-04-21T01:46:37.087Z,65.59
2016-04-21T01:46:50.384Z,65.88
2016-04-21T01:47:03.715Z,65.75
2016-04-21T01:47:17.012Z,65.59
2016-04-21T01:47:30.309Z,66.41
2016-04-21T01:47:57.762Z,65.94
2016-04-21T01:48:11.077Z,65.94
2016-04-21T01:48:24.202Z,65.37
2016-04-21T01:48:37.514Z,65.66
2016-04-21T01:48:50.827Z,65.56
2016-04-21T01:49:04.142Z,65.37
2016-04-21T01:49:17.455Z,65.28
2016-04-21T01:49:30.783Z,66.03
2016-04-21T01:49:44.064Z,66.41
2016-04-21T01:49:57.345Z,66.69
2016-04-21T01:50:10.660Z,67.07
2016-04-21T01:50:23.988Z,66.98
2016-04-21T01:50:37.972Z,66.88
2016-04-21T01:51:05.428Z,66.03
2016-04-21T01:51:18.725Z,66.22
2016-04-21T01:51:32.038Z,66.6
2016-04-21T01:51:45.366Z,66.22
2016-04-21T01:51:58.647Z,66.03
2016-04-21T01:52:11.963Z,65.66
2016-04-21T01:52:25.244Z,65.94
2016-04-21T01:52:38.541Z,65.75
2016-04-21T01:52:51.869Z,65.66
2016-04-21T01:53:05.169Z,65.5
2016-04-21T01:53:18.559Z,65.66
2016-04-21T01:53:31.841Z,65.66
2016-04-21T01:53:45.106Z,65.28
2016-04-21T01:53:58.403Z,65.4
2016-04-21T01:54:11.703Z,65.5
2016-04-21T01:54:25.015Z,65.59
2016-04-21T01:54:38.562Z,65.21
2016-04-21T01:54:52.094Z,65.37
2016-04-21T01:55:05.377Z,65.59
2016-04-21T01:55:18.674Z,65.69
2016-04-21T01:55:35.033Z,65.21
2016-04-21T01:56:02.505Z,65.09
2016-04-21T01:56:15.802Z,65.12
2016-04-21T01:56:29.411Z,65.31
2016-04-21T01:56:42.708Z,65.4
2016-04-21T01:56:56.020Z,65.69
2016-04-21T01:57:09.319Z,65.28
2016-04-21T01:57:22.632Z,65.84
2016-04-21T01:57:36.147Z,65.56
2016-04-21T01:57:49.429Z,66.41
2016-04-21T01:58:02.760Z,66.22
2016-04-21T01:58:16.072Z,66.69
2016-04-21T01:58:29.385Z,67.17
2016-04-21T01:58:42.682Z,66.5
2016-04-21T01:58:55.979Z,66.69
2016-04-21T01:59:09.293Z,66.79
2016-04-21T01:59:22.809Z,66.69
2016-04-21T01:59:36.121Z,67.07
2016-04-21T01:59:49.449Z,67.07
2016-04-21T02:00:02.734Z,67.17
2016-04-21T02:00:16.046Z,67.07
2016-04-21T02:00:29.577Z,67.07
2016-04-21T02:00:42.859Z,66.88
2016-04-21T02:00:56.187Z,66.88
2016-04-21T02:01:09.471Z,66.98
2016-04-21T02:01:22.783Z,66.13
2016-04-21T02:01:36.143Z,66.22
2016-04-21T02:01:49.440Z,66.35
2016-04-21T02:02:02.771Z,66.13
2016-04-21T02:02:16.083Z,66.22
2016-04-21T02:02:29.583Z,65.66
2016-04-21T02:02:42.896Z,65.18
2016-04-21T02:02:56.380Z,65.12
2016-04-21T02:03:09.711Z,65.21
2016-04-21T02:03:23.039Z,64.9
2016-04-21T02:03:36.352Z,64.93
2016-04-21T02:03:49.664Z,64.9
2016-04-21T02:04:02.979Z,64.23
2016-04-21T02:04:16.291Z,64.8
2016-04-21T02:04:29.604Z,64.9
2016-04-21T02:04:42.932Z,65.18
2016-04-21T02:04:56.448Z,65.66
2016-04-21T02:05:09.841Z,65.28
2016-04-21T02:05:23.248Z,65.84
2016-04-21T02:05:37.357Z,65.28
2016-04-21T02:05:50.763Z,65.66
2016-04-21T02:06:18.312Z,65.66
2016-04-21T02:06:31.687Z,65.28
2016-04-21T02:06:45.062Z,65.37
2016-04-21T02:06:58.421Z,65.75
2016-04-21T02:07:12.035Z,65.75
2016-04-21T02:07:25.441Z,65.37
2016-04-21T02:07:38.816Z,65.47
2016-04-21T02:07:52.222Z,65.75
2016-04-21T02:08:05.599Z,66.22
2016-04-21T02:08:18.896Z,65.94
2016-04-21T02:08:32.271Z,65.75
2016-04-21T02:08:45.662Z,65.84
2016-04-21T02:08:59.052Z,65.37
2016-04-21T02:09:12.430Z,65.37
2016-04-21T02:09:25.821Z,65.37
2016-04-21T02:09:39.196Z,65.56
2016-04-21T02:09:52.602Z,65.5
2016-04-21T02:10:05.979Z,65.4
2016-04-21T02:10:19.354Z,64.93
2016-04-21T02:10:32.932Z,64.9
2016-04-21T02:10:46.307Z,64.64
2016-04-21T02:10:59.651Z,64.55
2016-04-21T02:11:13.014Z,63.98
2016-04-21T02:11:26.373Z,63.79
2016-04-21T02:11:39.732Z,63.7
2016-04-21T02:11:53.060Z,63.6
2016-04-21T02:12:06.422Z,63.89
2016-04-21T02:12:19.812Z,64.07
2016-04-21T02:12:33.203Z,64.17
2016-04-21T02:12:46.547Z,64.8
2016-04-21T02:12:59.891Z,64.61
2016-04-21T02:13:13.238Z,64.93
2016-04-21T02:13:26.613Z,63.89
2016-04-21T02:13:39.973Z,63.79
2016-04-21T02:13:53.316Z,63.7
2016-04-21T02:14:06.616Z,63.6
2016-04-21T02:14:19.960Z,63.32
2016-04-21T02:14:33.319Z,63.04
2016-04-21T02:14:46.694Z,63.04
2016-04-21T02:15:00.038Z,63.42
2016-04-21T02:15:13.368Z,62.94
2016-04-21T02:15:29.946Z,62.85
2016-04-21T02:15:43.103Z,62.47
2016-04-21T02:15:56.431Z,62.66
2016-04-21T02:16:09.777Z,62.56
2016-04-21T02:16:23.089Z,62.37
2016-04-21T02:16:36.417Z,62.47
2016-04-21T02:16:49.761Z,62.75
2016-04-21T02:17:03.089Z,62.47
2016-04-21T02:17:16.420Z,62.66
2016-04-21T02:17:43.858Z,62.37
2016-04-21T02:17:57.170Z,62.47
2016-04-21T02:18:10.516Z,62.75
2016-04-21T02:18:38.203Z,63.51
2016-04-21T02:18:51.532Z,63.42
2016-04-21T02:19:05.035Z,63.23
2016-04-21T02:19:18.535Z,63.32
2016-04-21T02:19:31.878Z,63.04
2016-04-21T02:19:45.206Z,62.94
2016-04-21T02:19:58.519Z,62.75
2016-04-21T02:20:11.835Z,62.75
2016-04-21T02:21:07.009Z,62.28
2016-04-21T02:21:20.322Z,61.8
2016-04-21T02:21:47.650Z,62.37
2016-04-21T02:22:00.962Z,62.47
2016-04-21T02:22:14.277Z,61.99
2016-04-21T02:22:27.605Z,61.61
2016-04-21T02:22:40.918Z,61.8
2016-04-21T02:22:54.230Z,61.8
2016-04-21T02:23:07.546Z,62.28
2016-04-21T02:23:20.764Z,61.43
2016-04-21T02:23:34.124Z,61.8
2016-04-21T02:23:47.467Z,61.99
2016-04-21T02:24:14.925Z,62.09
2016-04-21T02:24:28.253Z,61.8
2016-04-21T02:24:41.565Z,61.61
2016-04-21T02:24:54.909Z,61.52
2016-04-21T02:25:08.255Z,61.24
2016-04-21T02:25:21.583Z,60.96
2016-04-21T02:25:37.958Z,60.86
2016-04-21T02:25:51.270Z,60.58
2016-04-21T02:26:04.583Z,60.77
2016-04-21T02:26:17.898Z,61.15
2016-04-21T02:26:31.226Z,60.67
2016-04-21T02:26:44.555Z,61.24
2016-04-21T02:26:58.070Z,61.05
2016-04-21T02:27:11.369Z,61.33
2016-04-21T02:27:24.697Z,61.71
2016-04-21T02:27:38.025Z,61.8
2016-04-21T02:27:51.353Z,61.61
2016-04-21T02:28:04.682Z,61.9
2016-04-21T02:28:17.997Z,61.52
2016-04-21T02:28:31.294Z,61.61
2016-04-21T02:28:44.606Z,61.99
2016-04-21T02:28:57.935Z,61.9
2016-04-21T02:29:11.266Z,62.28
2016-04-21T02:29:24.578Z,61.52
2016-04-21T02:29:37.938Z,61.43
2016-04-21T02:29:51.250Z,61.52
2016-04-21T02:30:04.578Z,61.24
2016-04-21T02:30:17.924Z,61.05
2016-04-21T02:30:45.424Z,60.96
2016-04-21T02:30:58.783Z,61.15
2016-04-21T02:31:11.927Z,62.18
2016-04-21T02:31:25.271Z,61.9
2016-04-21T02:31:38.568Z,62.28
2016-04-21T02:31:51.911Z,62.28
2016-04-21T02:32:05.241Z,62.28
2016-04-21T02:32:18.413Z,62.18
2016-04-21T02:32:31.726Z,61.9
2016-04-21T02:32:45.054Z,61.8
2016-04-21T02:32:58.366Z,61.9
2016-04-21T02:33:11.698Z,61.71
2016-04-21T02:33:25.026Z,61.9
2016-04-21T02:33:38.354Z,61.8
2016-04-21T02:33:51.666Z,61.61
2016-04-21T02:34:04.979Z,61.24
2016-04-21T02:34:18.326Z,60.96
2016-04-21T02:34:32.044Z,60.38
2016-04-21T02:34:45.372Z,60.67
2016-04-21T02:34:58.701Z,60.29
2016-04-21T02:35:12.046Z,60.48
2016-04-21T02:35:25.578Z,60.29
2016-04-21T02:35:39.109Z,60.38
2016-04-21T02:35:52.453Z,60.48
2016-04-21T02:36:05.753Z,60.29
2016-04-21T02:36:19.097Z,60.38
2016-04-21T02:36:32.394Z,60.29
2016-04-21T02:36:45.910Z,60.48
2016-04-21T02:36:59.285Z,59.81
2016-04-21T02:37:12.459Z,59.63
2016-04-21T02:37:25.755Z,59.53
2016-04-21T02:37:39.099Z,59.44
2016-04-21T02:37:52.412Z,59.63
2016-04-21T02:38:05.758Z,59.16
2016-04-21T02:38:18.977Z,59.63
2016-04-21T02:38:32.305Z,59.53
2016-04-21T02:38:48.633Z,59.25
2016-04-21T02:39:01.962Z,59.53
2016-04-21T02:39:15.277Z,59.44
2016-04-21T02:39:28.621Z,59.63
2016-04-21T02:39:41.761Z,59.81
2016-04-21T02:39:55.074Z,59.53
2016-04-21T02:40:08.404Z,59.34
2016-04-21T02:40:21.732Z,59.53
2016-04-21T02:40:35.435Z,59.34
2016-04-21T02:40:48.748Z,59.06
2016-04-21T02:41:02.060Z,58.87
2016-04-21T02:41:15.391Z,58.97
2016-04-21T02:41:28.751Z,58.59
2016-04-21T02:41:42.079Z,59.06
2016-04-21T02:41:55.391Z,59.16
2016-04-21T02:42:08.722Z,58.97
2016-04-21T02:42:22.018Z,58.97
2016-04-21T02:42:35.534Z,59.06
2016-04-21T02:42:48.862Z,59.06
2016-04-21T02:43:02.206Z,59.06
2016-04-21T02:43:15.553Z,58.78
2016-04-21T02:43:28.865Z,58.97
2016-04-21T02:43:56.318Z,58.78
2016-04-21T02:44:09.665Z,58.97
2016-04-21T02:44:22.978Z,59.06
2016-04-21T02:44:36.353Z,58.68
2016-04-21T02:44:49.696Z,58.59
2016-04-21T02:45:03.009Z,58.3
2016-04-21T02:45:16.308Z,58.49
2016-04-21T02:45:30.042Z,58.21
2016-04-21T02:45:43.605Z,58.97
2016-04-21T02:45:56.948Z,59.06
2016-04-21T02:46:10.280Z,58.4
2016-04-21T02:46:23.609Z,58.49
2016-04-21T02:46:36.905Z,58.11
2016-04-21T02:46:50.249Z,58.21
2016-04-21T02:47:03.593Z,57.92
2016-04-21T02:47:16.923Z,58.3
2016-04-21T02:47:30.236Z,58.02
2016-04-21T02:47:43.579Z,58.11
2016-04-21T02:47:56.923Z,58.4
2016-04-21T02:48:10.239Z,58.97
2016-04-21T02:48:23.582Z,59.06
2016-04-21T02:48:36.926Z,58.87
2016-04-21T02:48:50.239Z,58.87
2016-04-21T02:49:03.567Z,58.68
2016-04-21T02:49:16.881Z,58.4
2016-04-21T02:49:30.428Z,58.4
2016-04-21T02:49:43.756Z,58.3
2016-04-21T02:49:57.100Z,58.02
2016-04-21T02:50:10.415Z,58.02
2016-04-21T02:50:51.212Z,57.92
2016-04-21T02:51:04.556Z,58.3
2016-04-21T02:51:17.887Z,58.4
2016-04-21T02:51:31.215Z,58.49
2016-04-21T02:51:44.528Z,59.16
2016-04-21T02:51:57.856Z,58.97
2016-04-21T02:52:11.170Z,58.3
2016-04-21T02:52:38.655Z,58.4
2016-04-21T02:52:51.983Z,58.87
2016-04-21T02:53:05.342Z,59.06
2016-04-21T02:53:18.939Z,58.87
2016-04-21T02:53:32.283Z,59.06
2016-04-21T02:53:45.627Z,58.68
2016-04-21T02:53:58.939Z,58.97
2016-04-21T02:54:12.286Z,58.87
2016-04-21T02:54:25.770Z,58.97
2016-04-21T02:54:39.114Z,58.97
2016-04-21T02:54:52.661Z,58.97
2016-04-21T02:55:05.975Z,59.16
2016-04-21T02:55:19.319Z,58.97
2016-04-21T02:55:32.850Z,59.06
2016-04-21T02:56:00.303Z,59.44
2016-04-21T02:56:13.650Z,59.53
2016-04-21T02:56:26.978Z,59.72
2016-04-21T02:56:40.322Z,59.81
2016-04-21T02:56:53.635Z,60.38
2016-04-21T02:57:06.965Z,60.38
2016-04-21T02:57:20.262Z,60.38
2016-04-21T02:57:33.605Z,60.19
2016-04-21T02:57:46.933Z,59.63
2016-04-21T02:58:00.277Z,59.91
2016-04-21T02:58:13.594Z,59.81
2016-04-21T02:58:26.937Z,59.72
2016-04-21T02:58:40.250Z,59.81
2016-04-21T02:58:53.594Z,60.38
2016-04-21T02:59:06.924Z,59.72
2016-04-21T02:59:20.252Z,60.1
2016-04-21T02:59:33.814Z,60.29
2016-04-21T02:59:47.143Z,60.48
2016-04-21T03:00:00.455Z,60.1
2016-04-21T03:00:13.817Z,60.38
2016-04-21T03:00:27.177Z,60.19
2016-04-21T03:00:40.505Z,60.58
2016-04-21T03:00:53.849Z,60.77
2016-04-21T03:01:07.164Z,60.58
2016-04-21T03:01:20.508Z,60.77
2016-04-21T03:01:33.836Z,61.24
2016-04-21T03:01:47.180Z,60.77
2016-04-21T03:02:00.539Z,60.86
2016-04-21T03:02:13.854Z,60.86
2016-04-21T03:02:27.447Z,60.48